sensor_id;sensor_type;location;lat;lon;timestamp;temperature;humidity
57664;DHT22;43493;53.098;6.064;2023-06-22T00:01:59;19.40;99.90
57664;DHT22;43493;53.098;6.064;2023-06-22T00:04:25;19.40;99.90
57664;DHT22;43493;53.098;6.064;2023-06-22T00:06:51;19.40;99.90
57664;DHT22;43493;53.098;6.064;2023-06-22T00:09:17;19.40;99.90
57664;DHT22;43493;53.098;6.064;2023-06-22T00:11:42;19.30;99.90
57664;DHT22;43493;53.098;6.064;2023-06-22T00:14:08;19.30;99.90
57664;DHT22;43493;53.098;6.064;2023-06-22T00:16:34;19.30;99.90
57664;DHT22;43493;53.098;6.064;2023-06-22T00:19:00;19.30;99.90
57664;DHT22;43493;53.098;6.064;2023-06-22T00:21:27;19.30;99.90
57664;DHT22;43493;53.098;6.064;2023-06-22T00:23:53;19.30;99.90
57664;DHT22;43493;53.098;6.064;2023-06-22T00:26:20;19.20;99.90
57664;DHT22;43493;53.098;6.064;2023-06-22T00:28:46;19.20;99.90
57664;DHT22;43493;53.098;6.064;2023-06-22T00:31:12;19.10;99.90
57664;DHT22;43493;53.098;6.064;2023-06-22T00:33:38;19.10;99.90
57664;DHT22;43493;53.098;6.064;2023-06-22T00:36:04;19.10;99.90
57664;DHT22;43493;53.098;6.064;2023-06-22T00:38:30;19.00;99.90
57664;DHT22;43493;53.098;6.064;2023-06-22T00:40:56;19.00;99.90
57664;DHT22;43493;53.098;6.064;2023-06-22T00:43:22;19.00;99.90
57664;DHT22;43493;53.098;6.064;2023-06-22T00:45:48;19.00;99.90
57664;DHT22;43493;53.098;6.064;2023-06-22T00:48:14;18.90;99.90
57664;DHT22;43493;53.098;6.064;2023-06-22T00:50:40;18.90;99.90
57664;DHT22;43493;53.098;6.064;2023-06-22T00:53:08;18.90;99.90
57664;DHT22;43493;53.098;6.064;2023-06-22T00:55:36;18.90;99.90
57664;DHT22;43493;53.098;6.064;2023-06-22T00:58:06;18.80;99.90
57664;DHT22;43493;53.098;6.064;2023-06-22T01:00:36;18.80;99.90
57664;DHT22;43493;53.098;6.064;2023-06-22T01:03:02;18.80;99.90
57664;DHT22;43493;53.098;6.064;2023-06-22T01:05:28;18.70;99.90
57664;DHT22;43493;53.098;6.064;2023-06-22T01:10:39;18.70;99.90
57664;DHT22;43493;53.098;6.064;2023-06-22T01:15:45;18.70;99.90
57664;DHT22;43493;53.098;6.064;2023-06-22T01:18:13;18.60;99.90
57664;DHT22;43493;53.098;6.064;2023-06-22T01:20:40;18.60;99.90
57664;DHT22;43493;53.098;6.064;2023-06-22T01:23:27;18.60;99.90
57664;DHT22;43493;53.098;6.064;2023-06-22T01:28:57;18.70;99.90
57664;DHT22;43493;53.098;6.064;2023-06-22T01:31:27;18.70;99.90
57664;DHT22;43493;53.098;6.064;2023-06-22T01:33:58;18.70;99.90
57664;DHT22;43493;53.098;6.064;2023-06-22T01:36:26;18.70;99.90
57664;DHT22;43493;53.098;6.064;2023-06-22T01:38:53;18.70;99.90
57664;DHT22;43493;53.098;6.064;2023-06-22T01:41:24;18.60;99.90
57664;DHT22;43493;53.098;6.064;2023-06-22T01:43:50;18.70;99.90
57664;DHT22;43493;53.098;6.064;2023-06-22T01:46:17;18.60;99.90
57664;DHT22;43493;53.098;6.064;2023-06-22T01:48:45;18.70;99.90
57664;DHT22;43493;53.098;6.064;2023-06-22T01:51:11;18.70;99.90
57664;DHT22;43493;53.098;6.064;2023-06-22T01:53:37;18.70;99.90
57664;DHT22;43493;53.098;6.064;2023-06-22T01:56:03;18.60;99.90
57664;DHT22;43493;53.098;6.064;2023-06-22T01:58:30;18.60;99.90
57664;DHT22;43493;53.098;6.064;2023-06-22T02:01:06;18.60;99.90
57664;DHT22;43493;53.098;6.064;2023-06-22T02:03:47;18.60;99.90
57664;DHT22;43493;53.098;6.064;2023-06-22T02:06:17;18.60;99.90
57664;DHT22;43493;53.098;6.064;2023-06-22T02:08:51;18.60;99.90
57664;DHT22;43493;53.098;6.064;2023-06-22T02:11:20;18.60;99.90
57664;DHT22;43493;53.098;6.064;2023-06-22T02:13:46;18.60;99.90
57664;DHT22;43493;53.098;6.064;2023-06-22T02:16:14;18.60;99.90
57664;DHT22;43493;53.098;6.064;2023-06-22T02:18:51;18.60;99.90
57664;DHT22;43493;53.098;6.064;2023-06-22T02:21:17;18.50;99.90
57664;DHT22;43493;53.098;6.064;2023-06-22T02:23:43;18.50;99.90
57664;DHT22;43493;53.098;6.064;2023-06-22T02:26:09;18.40;99.90
57664;DHT22;43493;53.098;6.064;2023-06-22T02:28:35;18.40;99.90
57664;DHT22;43493;53.098;6.064;2023-06-22T02:31:01;18.40;99.90
57664;DHT22;43493;53.098;6.064;2023-06-22T02:33:27;18.30;99.90
57664;DHT22;43493;53.098;6.064;2023-06-22T02:35:53;18.40;99.90
57664;DHT22;43493;53.098;6.064;2023-06-22T02:38:19;18.40;99.90
57664;DHT22;43493;53.098;6.064;2023-06-22T02:40:45;18.40;99.90
57664;DHT22;43493;53.098;6.064;2023-06-22T02:43:11;18.40;99.90
57664;DHT22;43493;53.098;6.064;2023-06-22T02:45:37;18.30;99.90
57664;DHT22;43493;53.098;6.064;2023-06-22T02:48:03;18.30;99.90
57664;DHT22;43493;53.098;6.064;2023-06-22T02:50:29;18.20;99.90
57664;DHT22;43493;53.098;6.064;2023-06-22T02:52:55;18.10;99.90
57664;DHT22;43493;53.098;6.064;2023-06-22T02:55:21;18.10;99.90
57664;DHT22;43493;53.098;6.064;2023-06-22T02:57:46;18.20;99.90
57664;DHT22;43493;53.098;6.064;2023-06-22T03:00:14;18.10;99.90
57664;DHT22;43493;53.098;6.064;2023-06-22T03:02:47;18.10;99.90
57664;DHT22;43493;53.098;6.064;2023-06-22T03:05:14;18.10;99.90
57664;DHT22;43493;53.098;6.064;2023-06-22T03:07:41;18.00;99.90
57664;DHT22;43493;53.098;6.064;2023-06-22T03:10:11;18.00;99.90
57664;DHT22;43493;53.098;6.064;2023-06-22T03:12:38;18.10;99.90
57664;DHT22;43493;53.098;6.064;2023-06-22T03:15:09;18.10;99.90
57664;DHT22;43493;53.098;6.064;2023-06-22T03:17:35;18.20;99.90
57664;DHT22;43493;53.098;6.064;2023-06-22T03:20:02;18.10;99.90
57664;DHT22;43493;53.098;6.064;2023-06-22T03:22:42;18.10;99.90
57664;DHT22;43493;53.098;6.064;2023-06-22T03:25:08;18.20;99.90
57664;DHT22;43493;53.098;6.064;2023-06-22T03:27:42;18.20;99.90
57664;DHT22;43493;53.098;6.064;2023-06-22T03:30:11;18.20;99.90
57664;DHT22;43493;53.098;6.064;2023-06-22T03:32:37;18.20;99.90
57664;DHT22;43493;53.098;6.064;2023-06-22T03:35:02;18.20;99.90
57664;DHT22;43493;53.098;6.064;2023-06-22T03:37:29;18.10;99.90
57664;DHT22;43493;53.098;6.064;2023-06-22T03:39:55;18.20;99.90
57664;DHT22;43493;53.098;6.064;2023-06-22T03:42:20;18.20;99.90
57664;DHT22;43493;53.098;6.064;2023-06-22T03:44:47;18.10;99.90
57664;DHT22;43493;53.098;6.064;2023-06-22T03:47:13;18.10;99.90
57664;DHT22;43493;53.098;6.064;2023-06-22T03:49:38;18.00;99.90
57664;DHT22;43493;53.098;6.064;2023-06-22T03:52:05;18.00;99.90
57664;DHT22;43493;53.098;6.064;2023-06-22T03:54:31;18.00;99.90
57664;DHT22;43493;53.098;6.064;2023-06-22T03:56:58;18.00;99.90
57664;DHT22;43493;53.098;6.064;2023-06-22T03:59:24;18.00;99.90
57664;DHT22;43493;53.098;6.064;2023-06-22T04:01:50;18.00;99.90
57664;DHT22;43493;53.098;6.064;2023-06-22T04:04:19;18.10;99.90
57664;DHT22;43493;53.098;6.064;2023-06-22T04:06:45;18.10;99.90
57664;DHT22;43493;53.098;6.064;2023-06-22T04:09:10;18.20;99.90
57664;DHT22;43493;53.098;6.064;2023-06-22T04:11:36;18.20;99.90
57664;DHT22;43493;53.098;6.064;2023-06-22T04:14:02;18.20;99.90
57664;DHT22;43493;53.098;6.064;2023-06-22T04:16:28;18.20;99.90
57664;DHT22;43493;53.098;6.064;2023-06-22T04:18:53;18.20;99.90
57664;DHT22;43493;53.098;6.064;2023-06-22T04:21:19;18.20;99.90
57664;DHT22;43493;53.098;6.064;2023-06-22T04:23:46;18.20;99.90
57664;DHT22;43493;53.098;6.064;2023-06-22T04:26:12;18.10;99.90
57664;DHT22;43493;53.098;6.064;2023-06-22T04:28:39;18.00;99.90
57664;DHT22;43493;53.098;6.064;2023-06-22T04:31:04;18.00;99.90
57664;DHT22;43493;53.098;6.064;2023-06-22T04:33:30;18.00;99.90
57664;DHT22;43493;53.098;6.064;2023-06-22T04:35:57;18.00;99.90
57664;DHT22;43493;53.098;6.064;2023-06-22T04:38:23;18.00;99.90
57664;DHT22;43493;53.098;6.064;2023-06-22T04:40:49;18.00;99.90
57664;DHT22;43493;53.098;6.064;2023-06-22T04:43:15;18.00;99.90
57664;DHT22;43493;53.098;6.064;2023-06-22T04:45:41;18.00;99.90
57664;DHT22;43493;53.098;6.064;2023-06-22T04:48:07;18.10;99.90
57664;DHT22;43493;53.098;6.064;2023-06-22T04:50:36;18.20;99.90
57664;DHT22;43493;53.098;6.064;2023-06-22T04:53:03;18.20;99.90
57664;DHT22;43493;53.098;6.064;2023-06-22T04:55:31;18.20;99.90
57664;DHT22;43493;53.098;6.064;2023-06-22T04:57:57;18.20;99.90
57664;DHT22;43493;53.098;6.064;2023-06-22T05:00:30;18.20;99.90
57664;DHT22;43493;53.098;6.064;2023-06-22T05:02:56;18.30;99.90
57664;DHT22;43493;53.098;6.064;2023-06-22T05:05:23;18.50;99.90
57664;DHT22;43493;53.098;6.064;2023-06-22T05:07:50;18.60;99.90
57664;DHT22;43493;53.098;6.064;2023-06-22T05:10:19;18.70;99.90
57664;DHT22;43493;53.098;6.064;2023-06-22T05:12:46;18.70;99.90
57664;DHT22;43493;53.098;6.064;2023-06-22T05:15:12;18.80;99.90
57664;DHT22;43493;53.098;6.064;2023-06-22T05:17:38;18.80;99.90
57664;DHT22;43493;53.098;6.064;2023-06-22T05:20:10;19.00;99.90
57664;DHT22;43493;53.098;6.064;2023-06-22T05:22:36;19.00;99.90
57664;DHT22;43493;53.098;6.064;2023-06-22T05:25:02;19.10;99.90
57664;DHT22;43493;53.098;6.064;2023-06-22T05:27:28;19.20;99.90
57664;DHT22;43493;53.098;6.064;2023-06-22T05:29:54;19.20;99.90
57664;DHT22;43493;53.098;6.064;2023-06-22T05:32:19;19.30;99.90
57664;DHT22;43493;53.098;6.064;2023-06-22T05:34:45;19.40;99.90
57664;DHT22;43493;53.098;6.064;2023-06-22T05:37:11;19.50;99.90
57664;DHT22;43493;53.098;6.064;2023-06-22T05:39:38;19.80;99.90
57664;DHT22;43493;53.098;6.064;2023-06-22T05:42:07;19.90;99.90
57664;DHT22;43493;53.098;6.064;2023-06-22T05:44:33;20.10;99.90
57664;DHT22;43493;53.098;6.064;2023-06-22T05:46:59;20.20;99.90
57664;DHT22;43493;53.098;6.064;2023-06-22T05:49:25;20.40;99.90
57664;DHT22;43493;53.098;6.064;2023-06-22T05:51:55;20.50;99.90
57664;DHT22;43493;53.098;6.064;2023-06-22T05:54:22;21.30;99.90
57664;DHT22;43493;53.098;6.064;2023-06-22T05:56:48;22.10;99.90
57664;DHT22;43493;53.098;6.064;2023-06-22T05:59:13;22.90;99.90
57664;DHT22;43493;53.098;6.064;2023-06-22T06:01:39;23.20;99.90
57664;DHT22;43493;53.098;6.064;2023-06-22T06:04:06;23.50;99.90
57664;DHT22;43493;53.098;6.064;2023-06-22T06:06:34;23.80;99.90
57664;DHT22;43493;53.098;6.064;2023-06-22T06:09:03;24.00;99.90
57664;DHT22;43493;53.098;6.064;2023-06-22T06:11:29;23.90;99.90
57664;DHT22;43493;53.098;6.064;2023-06-22T06:13:55;23.90;99.90
57664;DHT22;43493;53.098;6.064;2023-06-22T06:16:22;23.70;99.90
57664;DHT22;43493;53.098;6.064;2023-06-22T06:18:47;23.40;99.90
57664;DHT22;43493;53.098;6.064;2023-06-22T06:21:16;23.30;99.90
57664;DHT22;43493;53.098;6.064;2023-06-22T06:23:42;23.20;99.90
57664;DHT22;43493;53.098;6.064;2023-06-22T06:26:08;22.80;99.90
57664;DHT22;43493;53.098;6.064;2023-06-22T06:28:35;22.80;99.90
57664;DHT22;43493;53.098;6.064;2023-06-22T06:31:01;22.80;99.90
57664;DHT22;43493;53.098;6.064;2023-06-22T06:33:26;23.10;99.90
57664;DHT22;43493;53.098;6.064;2023-06-22T06:35:52;23.10;99.90
57664;DHT22;43493;53.098;6.064;2023-06-22T06:38:18;23.10;99.90
57664;DHT22;43493;53.098;6.064;2023-06-22T06:40:44;23.10;99.90
57664;DHT22;43493;53.098;6.064;2023-06-22T06:43:10;23.10;99.90
57664;DHT22;43493;53.098;6.064;2023-06-22T06:45:36;22.90;99.90
57664;DHT22;43493;53.098;6.064;2023-06-22T06:48:02;22.90;99.90
57664;DHT22;43493;53.098;6.064;2023-06-22T06:50:28;22.90;99.90
57664;DHT22;43493;53.098;6.064;2023-06-22T06:52:54;23.10;99.90
57664;DHT22;43493;53.098;6.064;2023-06-22T06:55:20;23.10;99.90
57664;DHT22;43493;53.098;6.064;2023-06-22T06:57:46;23.10;99.90
57664;DHT22;43493;53.098;6.064;2023-06-22T07:00:14;23.10;99.90
57664;DHT22;43493;53.098;6.064;2023-06-22T07:02:42;23.20;99.90
57664;DHT22;43493;53.098;6.064;2023-06-22T07:05:09;23.30;99.90
57664;DHT22;43493;53.098;6.064;2023-06-22T07:07:36;23.50;99.90
57664;DHT22;43493;53.098;6.064;2023-06-22T07:10:02;23.80;99.90
57664;DHT22;43493;53.098;6.064;2023-06-22T07:12:28;24.20;99.90
57664;DHT22;43493;53.098;6.064;2023-06-22T07:15:05;24.50;99.90
57664;DHT22;43493;53.098;6.064;2023-06-22T07:17:31;24.60;99.90
57664;DHT22;43493;53.098;6.064;2023-06-22T07:19:57;24.70;99.90
57664;DHT22;43493;53.098;6.064;2023-06-22T07:22:23;24.70;99.90
57664;DHT22;43493;53.098;6.064;2023-06-22T07:24:48;24.90;99.90
57664;DHT22;43493;53.098;6.064;2023-06-22T07:27:15;25.40;99.90
57664;DHT22;43493;53.098;6.064;2023-06-22T07:29:44;25.80;99.90
57664;DHT22;43493;53.098;6.064;2023-06-22T07:32:10;25.90;99.90
57664;DHT22;43493;53.098;6.064;2023-06-22T07:34:35;26.10;99.90
57664;DHT22;43493;53.098;6.064;2023-06-22T07:37:01;26.50;99.90
57664;DHT22;43493;53.098;6.064;2023-06-22T07:39:27;26.90;99.90
57664;DHT22;43493;53.098;6.064;2023-06-22T07:41:53;27.10;99.90
57664;DHT22;43493;53.098;6.064;2023-06-22T07:44:19;27.60;99.90
57664;DHT22;43493;53.098;6.064;2023-06-22T07:46:45;28.00;99.00
57664;DHT22;43493;53.098;6.064;2023-06-22T07:49:10;28.80;98.20
57664;DHT22;43493;53.098;6.064;2023-06-22T07:51:36;29.60;92.90
57664;DHT22;43493;53.098;6.064;2023-06-22T07:54:02;29.90;90.90
57664;DHT22;43493;53.098;6.064;2023-06-22T07:56:28;29.60;81.50
57664;DHT22;43493;53.098;6.064;2023-06-22T07:58:53;29.30;81.90
57664;DHT22;43493;53.098;6.064;2023-06-22T08:01:20;29.00;86.70
57664;DHT22;43493;53.098;6.064;2023-06-22T08:03:55;28.90;87.80
57664;DHT22;43493;53.098;6.064;2023-06-22T08:06:21;28.90;87.90
57664;DHT22;43493;53.098;6.064;2023-06-22T08:08:46;28.70;88.40
57664;DHT22;43493;53.098;6.064;2023-06-22T08:11:14;28.30;89.80
57664;DHT22;43493;53.098;6.064;2023-06-22T08:13:40;28.30;91.10
57664;DHT22;43493;53.098;6.064;2023-06-22T08:16:06;28.50;90.90
57664;DHT22;43493;53.098;6.064;2023-06-22T08:18:33;28.60;86.70
57664;DHT22;43493;53.098;6.064;2023-06-22T08:20:58;28.90;85.80
57664;DHT22;43493;53.098;6.064;2023-06-22T08:23:24;29.30;84.30
57664;DHT22;43493;53.098;6.064;2023-06-22T08:25:50;29.50;80.00
57664;DHT22;43493;53.098;6.064;2023-06-22T08:28:16;29.70;74.20
57664;DHT22;43493;53.098;6.064;2023-06-22T08:30:42;30.00;72.90
57664;DHT22;43493;53.098;6.064;2023-06-22T08:33:07;30.00;69.00
57664;DHT22;43493;53.098;6.064;2023-06-22T08:35:33;30.10;68.50
57664;DHT22;43493;53.098;6.064;2023-06-22T08:37:59;30.70;69.00
57664;DHT22;43493;53.098;6.064;2023-06-22T08:40:25;30.80;66.50
57664;DHT22;43493;53.098;6.064;2023-06-22T08:42:51;30.40;63.00
57664;DHT22;43493;53.098;6.064;2023-06-22T08:45:17;30.40;63.90
57664;DHT22;43493;53.098;6.064;2023-06-22T08:47:42;30.20;65.70
57664;DHT22;43493;53.098;6.064;2023-06-22T08:50:11;30.30;68.40
57664;DHT22;43493;53.098;6.064;2023-06-22T08:52:39;30.00;64.70
57664;DHT22;43493;53.098;6.064;2023-06-22T08:55:07;29.70;63.30
57664;DHT22;43493;53.098;6.064;2023-06-22T08:57:34;29.20;63.30
57664;DHT22;43493;53.098;6.064;2023-06-22T09:00:02;28.70;65.40
57664;DHT22;43493;53.098;6.064;2023-06-22T09:02:30;28.30;68.90
57664;DHT22;43493;53.098;6.064;2023-06-22T09:05:06;27.80;72.90
57664;DHT22;43493;53.098;6.064;2023-06-22T09:07:32;27.60;80.10
57664;DHT22;43493;53.098;6.064;2023-06-22T09:09:57;27.30;79.60
57664;DHT22;43493;53.098;6.064;2023-06-22T09:12:23;27.20;83.60
57664;DHT22;43493;53.098;6.064;2023-06-22T09:14:51;27.10;86.50
57664;DHT22;43493;53.098;6.064;2023-06-22T09:17:17;27.10;88.40
57664;DHT22;43493;53.098;6.064;2023-06-22T09:19:44;27.00;88.70
57664;DHT22;43493;53.098;6.064;2023-06-22T09:22:10;26.90;90.50
57664;DHT22;43493;53.098;6.064;2023-06-22T09:24:35;26.80;90.70
57664;DHT22;43493;53.098;6.064;2023-06-22T09:27:01;26.80;90.20
57664;DHT22;43493;53.098;6.064;2023-06-22T09:29:27;26.80;91.40
57664;DHT22;43493;53.098;6.064;2023-06-22T09:31:53;26.80;90.80
57664;DHT22;43493;53.098;6.064;2023-06-22T09:34:21;26.70;91.10
57664;DHT22;43493;53.098;6.064;2023-06-22T09:36:47;26.50;91.50
57664;DHT22;43493;53.098;6.064;2023-06-22T09:39:13;26.30;92.40
57664;DHT22;43493;53.098;6.064;2023-06-22T09:41:38;26.30;92.90
57664;DHT22;43493;53.098;6.064;2023-06-22T09:44:04;26.30;93.40
57664;DHT22;43493;53.098;6.064;2023-06-22T09:46:30;26.30;92.70
57664;DHT22;43493;53.098;6.064;2023-06-22T09:48:55;26.30;93.70
57664;DHT22;43493;53.098;6.064;2023-06-22T09:51:22;26.30;93.80
57664;DHT22;43493;53.098;6.064;2023-06-22T09:53:49;26.40;94.20
57664;DHT22;43493;53.098;6.064;2023-06-22T09:56:15;26.40;93.50
57664;DHT22;43493;53.098;6.064;2023-06-22T09:58:45;26.40;93.50
57664;DHT22;43493;53.098;6.064;2023-06-22T10:01:15;26.30;92.70
57664;DHT22;43493;53.098;6.064;2023-06-22T10:03:41;26.20;93.40
57664;DHT22;43493;53.098;6.064;2023-06-22T10:06:07;26.20;93.30
57664;DHT22;43493;53.098;6.064;2023-06-22T10:08:34;26.00;93.40
57664;DHT22;43493;53.098;6.064;2023-06-22T10:11:01;25.90;93.70
57664;DHT22;43493;53.098;6.064;2023-06-22T10:13:26;25.90;94.50
57664;DHT22;43493;53.098;6.064;2023-06-22T10:15:52;25.90;95.20
57664;DHT22;43493;53.098;6.064;2023-06-22T10:18:18;25.90;95.60
57664;DHT22;43493;53.098;6.064;2023-06-22T10:20:47;26.00;95.00
57664;DHT22;43493;53.098;6.064;2023-06-22T10:23:13;25.90;94.80
57664;DHT22;43493;53.098;6.064;2023-06-22T10:25:39;25.90;94.70
57664;DHT22;43493;53.098;6.064;2023-06-22T10:28:05;25.90;93.00
57664;DHT22;43493;53.098;6.064;2023-06-22T10:30:30;25.90;91.70
57664;DHT22;43493;53.098;6.064;2023-06-22T10:32:56;25.80;92.20
57664;DHT22;43493;53.098;6.064;2023-06-22T10:35:22;25.80;93.10
57664;DHT22;43493;53.098;6.064;2023-06-22T10:37:48;25.90;93.50
57664;DHT22;43493;53.098;6.064;2023-06-22T10:40:15;25.90;92.50
57664;DHT22;43493;53.098;6.064;2023-06-22T10:42:41;25.90;92.80
57664;DHT22;43493;53.098;6.064;2023-06-22T10:45:07;25.90;92.70
57664;DHT22;43493;53.098;6.064;2023-06-22T10:47:34;25.80;92.20
57664;DHT22;43493;53.098;6.064;2023-06-22T10:49:59;25.80;92.60
57664;DHT22;43493;53.098;6.064;2023-06-22T10:52:25;25.80;91.90
57664;DHT22;43493;53.098;6.064;2023-06-22T10:54:51;25.80;91.70
57664;DHT22;43493;53.098;6.064;2023-06-22T10:57:18;25.90;91.00
57664;DHT22;43493;53.098;6.064;2023-06-22T10:59:44;26.00;90.00
57664;DHT22;43493;53.098;6.064;2023-06-22T11:02:10;25.90;83.80
57664;DHT22;43493;53.098;6.064;2023-06-22T11:04:35;25.80;83.30
57664;DHT22;43493;53.098;6.064;2023-06-22T11:07:01;25.90;86.00
57664;DHT22;43493;53.098;6.064;2023-06-22T11:09:27;26.00;86.10
57664;DHT22;43493;53.098;6.064;2023-06-22T11:11:53;26.00;85.10
57664;DHT22;43493;53.098;6.064;2023-06-22T11:14:19;26.00;82.20
57664;DHT22;43493;53.098;6.064;2023-06-22T11:16:45;26.00;81.80
57664;DHT22;43493;53.098;6.064;2023-06-22T11:19:12;26.00;75.80
57664;DHT22;43493;53.098;6.064;2023-06-22T11:21:38;26.10;80.90
57664;DHT22;43493;53.098;6.064;2023-06-22T11:24:04;26.20;81.80
57664;DHT22;43493;53.098;6.064;2023-06-22T11:26:30;26.10;81.50
57664;DHT22;43493;53.098;6.064;2023-06-22T11:28:57;26.30;82.80
57664;DHT22;43493;53.098;6.064;2023-06-22T11:31:23;26.30;79.30
57664;DHT22;43493;53.098;6.064;2023-06-22T11:33:49;26.30;78.50
57664;DHT22;43493;53.098;6.064;2023-06-22T11:36:15;26.40;76.30
57664;DHT22;43493;53.098;6.064;2023-06-22T11:38:42;26.50;68.00
57664;DHT22;43493;53.098;6.064;2023-06-22T11:41:09;26.40;69.60
57664;DHT22;43493;53.098;6.064;2023-06-22T11:43:35;26.40;72.70
57664;DHT22;43493;53.098;6.064;2023-06-22T11:46:03;26.30;75.50
57664;DHT22;43493;53.098;6.064;2023-06-22T11:48:29;26.30;76.10
57664;DHT22;43493;53.098;6.064;2023-06-22T11:50:55;26.40;76.10
57664;DHT22;43493;53.098;6.064;2023-06-22T11:53:21;26.40;75.30
57664;DHT22;43493;53.098;6.064;2023-06-22T11:55:47;26.40;74.60
57664;DHT22;43493;53.098;6.064;2023-06-22T11:58:14;26.40;74.70
57664;DHT22;43493;53.098;6.064;2023-06-22T12:00:40;26.40;76.70
57664;DHT22;43493;53.098;6.064;2023-06-22T12:03:07;26.30;77.00
57664;DHT22;43493;53.098;6.064;2023-06-22T12:05:33;26.40;74.20
57664;DHT22;43493;53.098;6.064;2023-06-22T12:07:59;26.30;70.90
57664;DHT22;43493;53.098;6.064;2023-06-22T12:10:28;26.20;70.80
57664;DHT22;43493;53.098;6.064;2023-06-22T12:12:56;26.20;72.30
57664;DHT22;43493;53.098;6.064;2023-06-22T12:15:26;26.20;73.80
57664;DHT22;43493;53.098;6.064;2023-06-22T12:17:52;26.20;75.20
57664;DHT22;43493;53.098;6.064;2023-06-22T12:20:18;26.20;75.10
57664;DHT22;43493;53.098;6.064;2023-06-22T12:22:44;26.10;76.50
57664;DHT22;43493;53.098;6.064;2023-06-22T12:25:10;26.10;77.90
57664;DHT22;43493;53.098;6.064;2023-06-22T12:27:37;26.10;78.10
57664;DHT22;43493;53.098;6.064;2023-06-22T12:30:03;26.20;78.90
57664;DHT22;43493;53.098;6.064;2023-06-22T12:32:30;26.20;80.00
57664;DHT22;43493;53.098;6.064;2023-06-22T12:34:56;26.10;84.30
57664;DHT22;43493;53.098;6.064;2023-06-22T12:37:23;26.10;89.00
57664;DHT22;43493;53.098;6.064;2023-06-22T12:39:48;26.10;90.90
57664;DHT22;43493;53.098;6.064;2023-06-22T12:42:15;26.10;92.30
57664;DHT22;43493;53.098;6.064;2023-06-22T12:44:41;26.00;93.10
57664;DHT22;43493;53.098;6.064;2023-06-22T12:47:07;25.80;94.00
57664;DHT22;43493;53.098;6.064;2023-06-22T12:49:37;25.80;94.40
57664;DHT22;43493;53.098;6.064;2023-06-22T12:52:03;25.70;95.10
57664;DHT22;43493;53.098;6.064;2023-06-22T12:54:29;25.70;95.50
57664;DHT22;43493;53.098;6.064;2023-06-22T12:56:55;25.70;96.20
57664;DHT22;43493;53.098;6.064;2023-06-22T12:59:21;25.70;96.60
57664;DHT22;43493;53.098;6.064;2023-06-22T13:01:47;25.70;97.10
57664;DHT22;43493;53.098;6.064;2023-06-22T13:04:13;25.70;96.70
57664;DHT22;43493;53.098;6.064;2023-06-22T13:06:46;25.70;96.80
57664;DHT22;43493;53.098;6.064;2023-06-22T13:09:15;25.70;97.90
57664;DHT22;43493;53.098;6.064;2023-06-22T13:11:42;25.70;98.50
57664;DHT22;43493;53.098;6.064;2023-06-22T13:14:08;25.70;97.60
57664;DHT22;43493;53.098;6.064;2023-06-22T13:16:34;25.60;97.70
57664;DHT22;43493;53.098;6.064;2023-06-22T13:18:59;25.60;97.90
57664;DHT22;43493;53.098;6.064;2023-06-22T13:21:25;25.40;98.30
57664;DHT22;43493;53.098;6.064;2023-06-22T13:23:54;25.40;98.30
57664;DHT22;43493;53.098;6.064;2023-06-22T13:26:21;25.40;98.60
57664;DHT22;43493;53.098;6.064;2023-06-22T13:28:46;25.40;98.70
57664;DHT22;43493;53.098;6.064;2023-06-22T13:31:12;25.40;99.00
57664;DHT22;43493;53.098;6.064;2023-06-22T13:33:38;25.40;98.50
57664;DHT22;43493;53.098;6.064;2023-06-22T13:36:04;25.40;98.50
57664;DHT22;43493;53.098;6.064;2023-06-22T13:38:31;25.30;98.50
57664;DHT22;43493;53.098;6.064;2023-06-22T13:40:57;25.30;98.40
57664;DHT22;43493;53.098;6.064;2023-06-22T13:43:26;25.30;99.10
57664;DHT22;43493;53.098;6.064;2023-06-22T13:45:52;25.10;98.50
57664;DHT22;43493;53.098;6.064;2023-06-22T13:48:17;25.10;98.00
57664;DHT22;43493;53.098;6.064;2023-06-22T13:50:43;25.00;98.30
57664;DHT22;43493;53.098;6.064;2023-06-22T13:53:09;24.90;98.90
57664;DHT22;43493;53.098;6.064;2023-06-22T13:55:35;24.90;99.10
57664;DHT22;43493;53.098;6.064;2023-06-22T13:58:00;24.80;99.20
57664;DHT22;43493;53.098;6.064;2023-06-22T14:00:26;24.80;99.00
57664;DHT22;43493;53.098;6.064;2023-06-22T14:02:53;24.70;98.70
57664;DHT22;43493;53.098;6.064;2023-06-22T14:05:20;24.70;99.30
57664;DHT22;43493;53.098;6.064;2023-06-22T14:07:45;24.70;99.50
57664;DHT22;43493;53.098;6.064;2023-06-22T14:10:11;24.60;98.40
57664;DHT22;43493;53.098;6.064;2023-06-22T14:12:37;24.50;98.20
57664;DHT22;43493;53.098;6.064;2023-06-22T14:15:03;24.40;99.20
57664;DHT22;43493;53.098;6.064;2023-06-22T14:17:29;24.30;99.70
57664;DHT22;43493;53.098;6.064;2023-06-22T14:19:55;24.30;98.70
57664;DHT22;43493;53.098;6.064;2023-06-22T14:22:22;24.20;99.10
57664;DHT22;43493;53.098;6.064;2023-06-22T14:24:48;24.10;99.70
57664;DHT22;43493;53.098;6.064;2023-06-22T14:27:15;24.10;99.60
57664;DHT22;43493;53.098;6.064;2023-06-22T14:29:41;24.10;99.90
57664;DHT22;43493;53.098;6.064;2023-06-22T14:32:07;24.00;99.90
57664;DHT22;43493;53.098;6.064;2023-06-22T14:34:34;23.90;99.90
57664;DHT22;43493;53.098;6.064;2023-06-22T14:37:04;23.90;99.90
57664;DHT22;43493;53.098;6.064;2023-06-22T14:39:30;23.90;99.90
57664;DHT22;43493;53.098;6.064;2023-06-22T14:41:56;23.80;99.90
57664;DHT22;43493;53.098;6.064;2023-06-22T14:44:22;23.80;99.90
57664;DHT22;43493;53.098;6.064;2023-06-22T14:46:47;23.80;99.90
57664;DHT22;43493;53.098;6.064;2023-06-22T14:49:13;23.80;99.90
57664;DHT22;43493;53.098;6.064;2023-06-22T14:51:39;23.80;99.90
57664;DHT22;43493;53.098;6.064;2023-06-22T14:54:05;23.90;99.90
57664;DHT22;43493;53.098;6.064;2023-06-22T14:56:30;23.90;99.90
57664;DHT22;43493;53.098;6.064;2023-06-22T14:58:56;23.90;99.90
57664;DHT22;43493;53.098;6.064;2023-06-22T15:01:22;23.90;99.90
57664;DHT22;43493;53.098;6.064;2023-06-22T15:03:47;23.80;99.90
57664;DHT22;43493;53.098;6.064;2023-06-22T15:06:13;23.80;99.90
57664;DHT22;43493;53.098;6.064;2023-06-22T15:08:40;23.70;99.90
57664;DHT22;43493;53.098;6.064;2023-06-22T15:11:07;23.60;99.90
57664;DHT22;43493;53.098;6.064;2023-06-22T15:13:33;23.50;99.90
57664;DHT22;43493;53.098;6.064;2023-06-22T15:16:00;23.40;99.90
57664;DHT22;43493;53.098;6.064;2023-06-22T15:18:26;23.40;99.90
57664;DHT22;43493;53.098;6.064;2023-06-22T15:20:53;23.40;99.90
57664;DHT22;43493;53.098;6.064;2023-06-22T15:23:18;23.40;99.90
57664;DHT22;43493;53.098;6.064;2023-06-22T15:25:44;23.40;99.90
57664;DHT22;43493;53.098;6.064;2023-06-22T15:28:11;23.40;99.60
57664;DHT22;43493;53.098;6.064;2023-06-22T15:30:37;23.40;98.20
57664;DHT22;43493;53.098;6.064;2023-06-22T15:33:03;23.30;95.70
57664;DHT22;43493;53.098;6.064;2023-06-22T15:35:28;23.20;96.20